Time;durP1;ratioP1;P1;durP2;ratioP2;P2;SDS_P1;SDS_P2;PMS_P1;PMS_P2;Temp;Humidity;BMP_temperature;BMP_pressure;BME280_temperature;BME280_humidity;BME280_pressure;Samples;Min_cycle;Max_cycle;Signal;HPM_P1;HPM_P2
2021/03/25 00:01:56;;;;;;;32.63;17.65;;;4.30;71.70;;;2.72;55.13;95342.22;5050963;28;20231;-84
2021/03/25 00:04:24;;;;;;;31.40;17.25;;;4.10;70.70;;;2.66;55.36;95340.16;5033150;28;20238;-84
2021/03/25 00:06:56;;;;;;;31.23;17.17;;;4.00;70.60;;;2.54;55.33;95336.03;5016999;28;20213;-84
2021/03/25 00:09:29;;;;;;;36.45;17.75;;;3.90;70.90;;;2.50;55.45;95334.63;5016431;28;20211;-84
2021/03/25 00:11:56;;;;;;;30.48;18.05;;;3.80;71.20;;;2.41;55.66;95333.66;5016829;28;20216;-84
2021/03/25 00:14:23;;;;;;;32.90;17.83;;;3.70;70.80;;;2.34;55.59;95325.59;5033030;28;20208;-84
2021/03/25 00:16:51;;;;;;;31.02;17.17;;;3.70;70.90;;;2.25;55.37;95328.97;5034069;28;20258;-84
2021/03/25 00:19:18;;;;;;;29.85;17.08;;;3.60;70.90;;;2.19;55.56;95326.91;5016807;28;20296;-84
2021/03/25 00:21:45;;;;;;;33.25;17.20;;;3.50;71.00;;;2.12;55.62;95324.00;5032999;28;20250;-84
2021/03/25 00:24:15;;;;;;;31.45;18.08;;;3.40;71.20;;;2.06;55.88;95329.69;5032797;28;20193;-85
2021/03/25 00:26:43;;;;;;;36.00;19.08;;;3.40;71.30;;;2.05;56.03;95330.63;5016791;28;20229;-84
2021/03/25 00:29:15;;;;;;;32.60;17.00;;;3.30;71.20;;;2.04;55.93;95327.25;5016291;28;20200;-84
2021/03/25 00:31:44;;;;;;;34.15;17.05;;;3.20;71.10;;;2.02;55.64;95325.72;5016591;28;20278;-85
2021/03/25 00:34:12;;;;;;;29.85;16.63;;;3.20;71.10;;;1.97;55.63;95327.91;5016365;28;20635;-84
2021/03/25 00:36:39;;;;;;;29.30;15.98;;;3.20;71.10;;;1.90;55.89;95322.41;4999898;28;20213;-84
2021/03/25 00:39:08;;;;;;;33.85;17.27;;;3.10;71.10;;;1.85;55.22;95322.78;5032446;28;20193;-85
2021/03/25 00:41:35;;;;;;;31.90;16.63;;;3.10;71.10;;;1.81;55.54;95320.56;5032189;28;20227;-84
2021/03/25 00:44:08;;;;;;;29.50;15.23;;;3.00;71.00;;;1.74;55.24;95315.91;5032546;28;20267;-85
2021/03/25 00:46:35;;;;;;;28.05;14.70;;;3.00;71.00;;;1.70;55.29;95322.28;5032718;28;20228;-85
2021/03/25 00:49:04;;;;;;;29.65;15.30;;;2.90;70.90;;;1.66;55.31;95326.09;5016029;28;20650;-85
2021/03/25 00:51:30;;;;;;;28.75;15.68;;;2.90;70.90;;;1.59;54.99;95318.00;5032445;28;20225;-84
2021/03/25 00:53:57;;;;;;;31.63;16.00;;;2.80;70.80;;;1.54;55.33;95314.97;4999831;28;20235;-85
2021/03/25 00:56:24;;;;;;;35.58;16.67;;;2.80;70.80;;;1.45;54.83;95315.72;5032448;28;20678;-84
2021/03/25 00:58:51;;;;;;;31.67;16.38;;;2.70;70.70;;;1.38;55.19;95305.06;5015775;28;20284;-84
2021/03/25 01:01:17;;;;;;;29.65;15.48;;;2.70;70.70;;;1.40;55.07;95325.63;5028434;28;20231;-84
2021/03/25 01:03:44;;;;;;;30.35;16.17;;;2.60;70.70;;;1.35;54.88;95320.81;5032185;28;20204;-83
2021/03/25 01:06:11;;;;;;;31.70;16.77;;;2.60;70.70;;;1.32;55.26;95320.25;5018465;28;20227;-84
2021/03/25 01:08:38;;;;;;;30.67;16.27;;;2.50;70.60;;;1.26;55.71;95316.41;5049141;28;20215;-84
2021/03/25 01:11:16;;;;;;;29.52;15.98;;;2.50;70.60;;;1.25;55.55;95322.53;5032055;28;20208;-84
2021/03/25 01:13:52;;;;;;;30.35;16.98;;;2.50;71.50;;;1.21;55.77;95316.78;5016020;28;20200;-85
2021/03/25 01:16:34;;;;;;;33.60;17.77;;;2.40;71.50;;;1.24;56.08;95323.47;5015951;28;20303;-84
2021/03/25 01:19:08;;;;;;;35.58;18.85;;;2.40;71.60;;;1.25;56.19;95315.59;5015739;28;20223;-84
2021/03/25 01:21:38;;;;;;;38.92;18.75;;;2.40;72.60;;;1.27;56.49;95311.13;5016156;28;20227;-84
2021/03/25 01:24:06;;;;;;;31.73;17.23;;;2.40;71.60;;;1.30;56.21;95317.81;5017224;28;20192;-84
2021/03/25 01:26:32;;;;;;;28.98;16.27;;;2.40;71.80;;;1.30;55.79;95319.56;4999403;28;20346;-85
2021/03/25 01:29:00;;;;;;;27.65;15.50;;;2.40;71.70;;;1.29;55.80;95326.50;4999312;28;20200;-84
2021/03/25 01:31:29;;;;;;;30.92;16.92;;;2.40;71.70;;;1.27;55.88;95328.41;5000202;28;20235;-84
2021/03/25 01:34:00;;;;;;;33.78;18.38;;;2.40;71.70;;;1.24;55.96;95321.69;5016249;28;20287;-84
2021/03/25 01:36:27;;;;;;;32.05;17.75;;;2.40;71.70;;;1.22;56.01;95317.59;5015420;28;20248;-84
2021/03/25 01:38:54;;;;;;;32.22;17.48;;;2.30;71.50;;;1.18;56.32;95313.63;4999174;28;20211;-84
2021/03/25 01:41:29;;;;;;;35.15;18.38;;;2.30;71.60;;;1.17;56.35;95307.63;4999598;28;20235;-85
2021/03/25 01:43:57;;;;;;;32.90;18.25;;;2.30;72.10;;;1.17;56.73;95307.63;4999700;28;20193;-84
2021/03/25 01:46:30;;;;;;;36.10;19.98;;;2.30;71.80;;;1.18;57.30;95305.88;5015287;28;20208;-84
2021/03/25 01:49:04;;;;;;;39.25;19.83;;;2.30;72.20;;;1.16;57.36;95298.25;5031622;28;20218;-84
2021/03/25 01:52:24;;;;;;;41.95;21.52;;;2.30;72.30;;;1.19;58.39;95294.59;5016080;28;20311;-84
2021/03/25 01:55:35;;;;;;;40.90;21.00;;;2.30;73.00;;;1.23;58.20;95296.81;5015313;28;20295;-84
2021/03/25 01:58:39;;;;;;;37.47;19.63;;;2.30;73.20;;;1.28;58.07;95291.25;5031355;28;20228;-85
2021/03/25 02:01:40;;;;;;;35.33;19.20;;;2.30;73.40;;;1.31;58.30;95287.59;5031757;28;20270;-84
2021/03/25 02:04:46;;;;;;;34.10;19.15;;;2.40;73.40;;;1.34;57.99;95284.78;5015492;28;20654;-84
2021/03/25 02:07:42;;;;;;;30.90;17.05;;;2.40;73.60;;;1.35;57.64;95276.88;5026093;28;20220;-84
2021/03/25 02:10:47;;;;;;;31.73;17.45;;;2.40;73.50;;;1.32;57.51;95277.16;5031725;28;20202;-85
2021/03/25 02:14:05;;;;;;;31.67;16.70;;;2.40;73.20;;;1.27;57.46;95279.31;5015868;28;20219;-84
2021/03/25 02:17:23;;;;;;;32.22;15.95;;;2.40;73.10;;;1.31;57.52;95285.00;5022219;28;20216;-84
2021/03/25 02:20:49;;;;;;;29.30;16.35;;;2.40;73.20;;;1.34;57.34;95279.59;5031789;28;20234;-84
2021/03/25 02:24:02;;;;;;;30.13;15.68;;;2.40;73.50;;;1.33;57.39;95273.63;5014936;28;20226;-84
2021/03/25 02:26:47;;;;;;;27.95;15.13;;;2.40;73.50;;;1.34;57.04;95285.59;5051161;28;20216;-84
2021/03/25 02:29:37;;;;;;;24.52;14.05;;;2.40;73.00;;;1.29;56.93;95277.41;5035092;28;20222;-85
2021/03/25 02:32:13;;;;;;;24.10;13.80;;;2.40;73.20;;;1.30;56.58;95283.41;5036823;28;20217;-83
2021/03/25 02:34:46;;;;;;;26.75;13.88;;;2.40;72.80;;;1.19;56.33;95266.19;4999118;28;20200;-85
2021/03/25 02:37:26;;;;;;;25.17;14.43;;;2.40;72.70;;;1.15;56.62;95275.94;5034740;28;20331;-84
2021/03/25 02:40:28;;;;;;;28.50;14.77;;;2.40;73.00;;;1.11;56.30;95280.53;5002837;28;20228;-84
2021/03/25 02:43:08;;;;;;;26.45;13.93;;;2.30;72.90;;;1.03;56.46;95279.53;5033743;28;20232;-83
2021/03/25 02:45:47;;;;;;;23.63;14.15;;;2.20;72.30;;;0.94;56.56;95281.91;5018478;28;20196;-84
2021/03/25 02:48:21;;;;;;;29.73;14.95;;;2.20;72.50;;;0.91;56.56;95287.28;5018612;28;20216;-84
2021/03/25 02:51:10;;;;;;;26.77;14.75;;;2.10;72.30;;;0.82;56.69;95277.72;5022226;28;20206;-84
2021/03/25 02:53:41;;;;;;;30.15;15.43;;;2.10;72.60;;;0.82;56.64;95284.63;5033964;28;20197;-84
2021/03/25 02:56:19;;;;;;;28.83;15.00;;;2.10;72.30;;;0.77;56.57;95279.84;5018557;28;20312;-84
2021/03/25 02:58:52;;;;;;;30.52;16.30;;;2.00;72.50;;;0.76;57.06;95276.44;5034373;28;20200;-83
2021/03/25 03:01:20;;;;;;;34.55;17.00;;;2.00;72.50;;;0.77;57.80;95272.13;5022680;28;20215;-84
2021/03/25 03:04:04;;;;;;;32.50;17.45;;;2.00;72.50;;;0.80;57.99;95271.84;5037855;28;20254;-84
2021/03/25 03:06:51;;;;;;;34.88;18.02;;;1.90;73.00;;;0.81;58.45;95276.06;5055849;28;20219;-85
2021/03/25 03:09:31;;;;;;;34.22;17.73;;;1.90;73.40;;;0.86;58.77;95279.09;5054833;28;20257;-84
2021/03/25 03:12:04;;;;;;;30.92;15.88;;;1.90;73.60;;;0.90;58.41;95275.31;5034141;28;20240;-84
2021/03/25 03:14:45;;;;;;;31.42;16.48;;;2.00;73.40;;;0.99;58.54;95285.88;5044934;28;20223;-84
2021/03/25 03:17:23;;;;;;;31.35;16.65;;;2.00;73.80;;;1.02;58.81;95278.69;5026680;28;20709;-84
2021/03/25 03:20:25;;;;;;;33.88;17.13;;;2.00;73.60;;;1.09;59.38;95268.69;5036282;28;20235;-84
2021/03/25 03:23:31;;;;;;;32.28;17.00;;;2.10;74.00;;;1.15;58.91;95264.78;5044754;28;20236;-84
2021/03/25 03:26:05;;;;;;;30.63;15.88;;;2.10;74.10;;;1.20;58.72;95263.47;5050275;28;20210;-84
2021/03/25 03:28:45;;;;;;;25.13;14.18;;;2.20;74.00;;;1.27;57.97;95264.59;5033158;28;20193;-84
2021/03/25 03:31:31;;;;;;;31.17;14.45;;;2.20;74.50;;;1.31;58.23;95265.19;5035082;28;20224;-84
2021/03/25 03:34:22;;;;;;;26.70;14.05;;;2.30;74.20;;;1.31;57.86;95260.00;5035477;28;20205;-84
2021/03/25 03:36:57;;;;;;;25.33;13.77;;;2.30;73.90;;;1.28;57.70;95260.25;5026411;28;20223;-81
2021/03/25 03:39:28;;;;;;;29.83;15.20;;;2.30;73.50;;;1.22;57.77;95259.00;5046663;28;20226;-81
2021/03/25 03:42:14;;;;;;;27.98;14.90;;;2.30;73.40;;;1.16;57.63;95259.50;5037318;28;20236;-84
2021/03/25 03:44:48;;;;;;;29.13;15.75;;;2.30;73.50;;;1.10;57.50;95258.22;4999235;28;20219;-84
2021/03/25 03:47:23;;;;;;;29.40;16.45;;;2.30;73.50;;;1.08;57.39;95261.88;5002189;28;20275;-84
2021/03/25 03:50:13;;;;;;;30.10;16.17;;;2.20;73.20;;;1.03;57.30;95258.88;5041934;28;20677;-83
2021/03/25 03:52:46;;;;;;;30.35;15.85;;;2.20;73.20;;;0.97;57.07;95264.53;5033398;28;20223;-83
2021/03/25 03:55:15;;;;;;;29.50;15.73;;;2.10;73.00;;;0.89;57.30;95260.78;5041881;28;20200;-83
2021/03/25 03:58:13;;;;;;;27.52;15.77;;;2.10;73.00;;;0.83;57.20;95265.63;5039469;28;20235;-83
2021/03/25 04:00:47;;;;;;;29.50;15.85;;;2.10;73.50;;;0.77;57.52;95256.63;5051725;28;20201;-83
2021/03/25 04:03:41;;;;;;;36.67;18.77;;;2.00;72.80;;;0.71;57.72;95254.50;5050468;28;20274;-84
2021/03/25 04:06:41;;;;;;;30.83;16.23;;;2.00;73.50;;;0.66;57.96;95254.91;5043627;28;20265;-84
2021/03/25 04:09:47;;;;;;;31.10;15.38;;;1.90;73.10;;;0.64;58.15;95254.19;5033277;28;20544;-83
2021/03/25 04:12:29;;;;;;;28.08;15.43;;;1.90;73.30;;;0.66;58.23;95248.91;5028688;28;20662;-83
2021/03/25 04:15:05;;;;;;;29.80;15.00;;;1.80;73.80;;;0.72;58.33;95259.56;5042308;28;20721;-83
2021/03/25 04:17:44;;;;;;;26.45;14.70;;;1.80;73.80;;;0.77;57.93;95266.94;5042215;28;20243;-83
2021/03/25 04:20:31;;;;;;;23.52;12.65;;;1.80;73.60;;;0.80;57.75;95266.69;5024584;28;20196;-83
2021/03/25 04:23:14;;;;;;;27.77;14.07;;;1.90;73.50;;;0.84;57.82;95262.09;5027516;28;20204;-83
2021/03/25 04:25:51;;;;;;;28.90;15.13;;;1.90;73.80;;;0.92;57.98;95257.16;5043331;28;20200;-83
2021/03/25 04:28:56;;;;;;;27.35;14.95;;;1.90;74.00;;;1.01;58.18;95260.75;5034535;28;20268;-83
2021/03/25 04:31:23;;;;;;;28.60;14.75;;;1.90;74.40;;;1.09;58.40;95259.16;5024892;28;20231;-84
2021/03/25 04:33:49;;;;;;;29.30;15.15;;;2.00;74.00;;;1.15;58.33;95263.03;5022032;28;20248;-82
2021/03/25 04:36:21;;;;;;;31.55;15.48;;;2.10;74.20;;;1.27;57.96;95267.19;5048653;28;20637;-83
2021/03/25 04:38:48;;;;;;;30.48;15.35;;;2.10;74.30;;;1.30;58.02;95268.69;5032075;28;20197;-83
2021/03/25 04:41:17;;;;;;;28.90;15.65;;;2.20;74.20;;;1.28;57.92;95266.25;5031904;28;20682;-83
2021/03/25 04:43:46;;;;;;;27.52;14.35;;;2.20;74.00;;;1.28;57.67;95273.16;5015689;28;20220;-83
2021/03/25 04:46:52;;;;;;;26.88;14.45;;;2.20;73.80;;;1.20;57.43;95276.38;5037794;28;20252;-84
2021/03/25 04:49:44;;;;;;;30.30;16.27;;;2.20;74.00;;;1.17;59.64;95268.88;5034107;28;20621;-84
2021/03/25 04:52:21;;;;;;;32.28;17.55;;;2.20;74.30;;;1.27;60.47;95276.72;5049858;28;20277;-85
2021/03/25 04:54:48;;;;;;;30.27;17.23;;;2.30;74.90;;;1.40;61.33;95274.78;5050524;28;20270;-85
2021/03/25 04:57:37;;;;;;;32.70;17.63;;;2.30;75.10;;;1.58;60.97;95272.41;5050528;28;20216;-85
2021/03/25 05:00:12;;;;;;;42.95;19.83;;;2.40;75.90;;;1.74;61.45;95269.34;5066801;28;20184;-85
2021/03/25 05:02:39;;;;;;;43.70;24.23;;;2.50;75.90;;;1.87;61.49;95271.75;5050655;28;20707;-85
2021/03/25 05:05:07;;;;;;;36.35;20.58;;;2.60;75.90;;;2.01;61.29;95280.91;5051969;28;20195;-84
2021/03/25 05:07:39;;;;;;;39.78;20.48;;;2.70;75.90;;;2.15;61.01;95279.75;5052407;28;20228;-85
2021/03/25 05:10:24;;;;;;;34.10;18.48;;;2.80;76.00;;;2.21;60.51;95278.41;5034078;28;20820;-83
2021/03/25 05:12:54;;;;;;;31.65;17.35;;;3.00;76.00;;;2.27;59.80;95285.66;5050187;28;20375;-85
2021/03/25 05:15:22;;;;;;;30.50;15.88;;;3.00;75.50;;;2.24;59.56;95284.13;5050182;28;20577;-85
2021/03/25 05:18:21;;;;;;;29.45;16.05;;;3.00;75.20;;;2.24;59.59;95285.91;5050241;28;20788;-84
2021/03/25 05:21:17;;;;;;;30.90;16.65;;;3.10;75.50;;;2.28;60.33;95292.47;5021457;28;20207;-85
2021/03/25 05:23:56;;;;;;;34.42;17.20;;;3.10;75.40;;;2.38;61.24;95279.53;5051749;28;20199;-84
2021/03/25 05:26:45;;;;;;;31.42;17.85;;;3.20;75.80;;;2.50;60.24;95277.69;5050312;28;20220;-84
2021/03/25 05:29:13;;;;;;;33.60;18.73;;;3.30;76.00;;;2.53;59.62;95278.22;5051429;28;20634;-83
2021/03/25 05:31:42;;;;;;;30.88;17.00;;;3.30;75.50;;;2.55;58.89;95285.84;5035006;28;20216;-85
2021/03/25 05:34:09;;;;;;;32.60;17.08;;;3.40;75.20;;;2.50;58.85;95282.84;5035091;28;20207;-84
2021/03/25 05:36:37;;;;;;;30.58;17.23;;;3.40;74.90;;;2.43;58.97;95281.75;5051578;28;20226;-84
2021/03/25 05:39:10;;;;;;;29.83;16.83;;;3.40;74.70;;;2.35;58.81;95287.59;5067687;28;20561;-85
2021/03/25 05:42:26;;;;;;;29.08;16.80;;;3.40;74.50;;;2.27;58.74;95296.03;5034303;28;20224;-85
2021/03/25 05:45:14;;;;;;;28.17;15.20;;;3.30;74.80;;;2.23;59.37;95292.03;5051300;28;20196;-84
2021/03/25 05:47:55;;;;;;;29.10;15.20;;;3.30;75.00;;;2.31;59.55;95294.81;5046871;28;20314;-85
2021/03/25 05:51:15;;;;;;;30.15;16.00;;;3.30;75.20;;;2.46;60.04;95305.59;5026659;28;20224;-84
2021/03/25 05:54:15;;;;;;;29.55;15.63;;;3.30;75.50;;;2.65;59.93;95301.41;5052141;28;20208;-84
2021/03/25 05:57:32;;;;;;;27.10;15.18;;;3.40;75.90;;;2.80;59.67;95305.28;5022199;28;20244;-85
2021/03/25 06:00:34;;;;;;;29.27;15.43;;;3.50;76.90;;;2.92;59.28;95308.56;5030082;28;20431;-85
2021/03/25 06:03:14;;;;;;;30.88;15.65;;;3.60;76.10;;;2.98;58.87;95302.00;5013370;28;20247;-84
2021/03/25 06:05:45;;;;;;;32.28;16.00;;;3.60;75.80;;;3.02;58.70;95308.56;5014778;28;20201;-85
2021/03/25 06:08:29;;;;;;;29.67;16.23;;;3.70;75.30;;;3.03;58.62;95307.63;5047968;28;20257;-85
2021/03/25 06:11:15;;;;;;;30.13;16.05;;;3.80;75.60;;;2.99;58.52;95304.50;5054278;28;20253;-86
2021/03/25 06:13:59;;;;;;;35.92;19.40;;;3.80;75.30;;;2.99;58.73;95303.66;5054140;28;20188;-85
2021/03/25 06:16:48;;;;;;;30.42;16.38;;;3.80;75.30;;;2.97;58.77;95300.41;5053563;28;20219;-85
2021/03/25 06:19:36;;;;;;;28.70;15.25;;;3.80;75.40;;;3.08;59.44;95312.41;5053751;28;20204;-85
2021/03/25 06:22:26;;;;;;;28.70;15.40;;;3.90;75.60;;;3.23;59.49;95311.03;5053742;28;20613;-87
2021/03/25 06:25:07;;;;;;;27.52;15.38;;;3.90;75.90;;;3.40;59.53;95313.91;5017237;28;20736;-86
2021/03/25 06:27:40;;;;;;;26.63;14.73;;;4.00;77.00;;;3.53;59.85;95317.84;5033706;28;20220;-86
2021/03/25 06:30:20;;;;;;;29.40;15.95;;;4.10;76.20;;;3.67;59.74;95311.44;5034665;28;20255;-85
2021/03/25 06:33:01;;;;;;;32.65;17.80;;;4.20;76.40;;;3.85;60.14;95318.47;5035142;28;20239;-85
2021/03/25 06:35:36;;;;;;;35.05;18.63;;;4.30;76.60;;;4.03;60.57;95321.19;5002790;28;20211;-85
2021/03/25 06:38:47;;;;;;;32.58;17.92;;;4.50;76.80;;;4.28;60.83;95317.09;5018521;28;20702;-85
2021/03/25 06:41:28;;;;;;;32.10;16.73;;;4.60;76.80;;;4.53;60.72;95324.41;5018716;28;20258;-85
2021/03/25 06:44:23;;;;;;;33.80;17.60;;;4.80;77.10;;;4.76;60.38;95323.06;5018494;28;20197;-85
2021/03/25 06:47:02;;;;;;;29.00;15.90;;;5.00;77.00;;;4.96;60.48;95312.53;5004863;28;20236;-87
2021/03/25 06:49:47;;;;;;;32.28;16.65;;;5.20;77.00;;;5.23;59.99;95322.06;5018470;28;20634;-86
2021/03/25 06:52:24;;;;;;;34.38;17.83;;;5.40;76.90;;;5.47;59.70;95325.84;5031763;28;20458;-86
2021/03/25 06:54:59;;;;;;;28.10;16.38;;;5.60;76.80;;;5.67;59.76;95318.69;5036297;28;20188;-85
2021/03/25 06:57:39;;;;;;;26.35;15.43;;;5.80;76.70;;;5.92;58.94;95327.50;5019626;28;20212;-86
2021/03/25 07:00:07;;;;;;;27.88;15.57;;;6.00;76.60;;;6.12;58.90;95329.13;5036132;28;20245;-85
2021/03/25 07:02:36;;;;;;;29.48;15.77;;;6.20;76.50;;;6.33;58.40;95326.13;5036095;28;20235;-85
2021/03/25 07:05:08;;;;;;;30.60;15.60;;;6.40;77.10;;;6.48;58.59;95326.38;5052517;28;20184;-86
2021/03/25 07:07:40;;;;;;;30.77;16.40;;;6.60;76.10;;;6.67;57.86;95328.72;5032684;28;20204;-86
2021/03/25 07:10:12;;;;;;;29.33;15.45;;;6.80;76.00;;;6.85;57.19;95333.03;5016091;28;20247;-86
2021/03/25 07:12:46;;;;;;;28.70;15.55;;;7.00;75.80;;;7.02;57.29;95331.31;5019491;28;20235;-85
2021/03/25 07:15:37;;;;;;;25.80;14.77;;;7.10;75.70;;;7.19;57.87;95338.19;5024829;28;20666;-86
2021/03/25 07:18:20;;;;;;;27.73;15.02;;;7.30;75.70;;;7.33;57.30;95335.91;5018577;28;20243;-86
2021/03/25 07:20:47;;;;;;;30.05;15.95;;;7.50;75.60;;;7.46;56.53;95341.47;5017395;28;20650;-87
2021/03/25 07:23:21;;;;;;;27.13;14.65;;;7.70;75.40;;;7.62;56.51;95342.47;5019656;28;20225;-85
2021/03/25 07:25:50;;;;;;;30.63;16.27;;;7.80;75.00;;;7.79;56.10;95353.75;5044222;28;20204;-86
2021/03/25 07:28:24;;;;;;;29.15;15.90;;;7.90;74.70;;;7.94;55.85;95340.84;5007097;28;20307;-86
2021/03/25 07:31:01;;;;;;;30.38;15.55;;;8.10;74.60;;;8.06;55.80;95349.97;5018009;28;20196;-84
2021/03/25 07:33:38;;;;;;;29.05;15.82;;;8.20;74.60;;;8.16;55.43;95336.72;5008803;28;20201;-85
2021/03/25 07:36:14;;;;;;;29.83;15.15;;;8.30;74.70;;;8.29;55.27;95339.63;5028053;28;20583;-83
2021/03/25 07:38:43;;;;;;;28.13;14.75;;;8.40;74.60;;;8.43;54.92;95345.97;5041897;28;20547;-86
2021/03/25 07:41:30;;;;;;;27.40;14.57;;;8.60;74.10;;;8.54;54.60;95338.78;5032167;28;20307;-86
2021/03/25 07:44:02;;;;;;;30.73;15.65;;;8.80;74.00;;;8.64;54.22;95340.22;5033494;28;20243;-85
2021/03/25 07:46:45;;;;;;;28.80;15.48;;;8.80;73.60;;;8.76;54.27;95330.22;5026973;28;20252;-85
2021/03/25 07:49:12;;;;;;;28.75;16.35;;;8.90;73.50;;;8.87;53.95;95336.03;5049511;28;20200;-86
2021/03/25 07:52:04;;;;;;;30.33;16.48;;;9.10;73.60;;;8.98;54.21;95338.28;5045836;28;20232;-85
2021/03/25 07:54:39;;;;;;;27.08;15.45;;;9.20;73.40;;;9.10;54.04;95336.09;5025593;28;20584;-85
2021/03/25 07:57:17;;;;;;;29.85;16.08;;;9.30;73.30;;;9.21;53.89;95335.69;5026900;28;20232;-85
2021/03/25 07:59:50;;;;;;;31.98;16.25;;;9.40;73.20;;;9.31;53.49;95339.91;5038693;28;20236;-86
2021/03/25 08:02:41;;;;;;;32.35;16.52;;;9.50;73.00;;;9.37;53.24;95328.75;5047532;28;20360;-86
2021/03/25 08:05:29;;;;;;;33.65;17.55;;;9.60;72.70;;;9.49;52.79;95340.44;5017517;28;20196;-85
2021/03/25 08:08:02;;;;;;;32.08;17.00;;;9.70;72.50;;;9.55;52.33;95342.34;5043202;28;20223;-85
2021/03/25 08:10:43;;;;;;;28.10;16.25;;;9.80;72.40;;;9.69;52.27;95347.81;5022217;28;20196;-86
2021/03/25 08:13:24;;;;;;;33.97;17.92;;;9.90;72.20;;;9.69;51.93;95335.56;5029416;28;20192;-84
2021/03/25 08:16:09;;;;;;;31.65;17.67;;;10.00;70.50;;;9.89;52.31;95342.94;5056987;28;20200;-86
2021/03/25 08:19:02;;;;;;;26.20;14.23;;;10.10;70.60;;;9.99;52.62;95343.47;5058380;28;20184;-86
2021/03/25 08:21:48;;;;;;;26.35;15.02;;;10.20;71.00;;;10.06;52.85;95341.00;5027126;28;20225;-86
2021/03/25 08:24:51;;;;;;;27.00;14.65;;;10.30;70.90;;;10.24;52.88;95343.25;5047066;28;20204;-86
2021/03/25 08:28:03;;;;;;;30.80;16.60;;;10.40;71.10;;;10.34;52.31;95358.72;5033136;28;20216;-87
2021/03/25 08:30:50;;;;;;;29.98;17.05;;;10.50;70.80;;;10.42;52.39;95342.94;5023983;28;20208;-87
2021/03/25 08:34:06;;;;;;;35.05;17.70;;;10.60;70.70;;;10.52;51.84;95345.31;5035001;28;20777;-86
2021/03/25 08:36:56;;;;;;;32.17;17.00;;;10.70;70.40;;;10.63;51.62;95344.03;5061510;28;20231;-84
2021/03/25 08:39:44;;;;;;;29.85;16.15;;;10.80;70.30;;;10.72;51.73;95335.91;5013107;28;20206;-86
2021/03/25 08:42:20;;;;;;;31.35;16.70;;;10.90;70.20;;;10.84;51.25;95340.66;5014635;28;20228;-84
2021/03/25 08:45:20;;;;;;;30.08;16.90;;;11.00;70.20;;;10.91;50.19;95340.78;5032776;28;20227;-83
2021/03/25 08:48:11;;;;;;;30.27;15.80;;;11.10;69.70;;;11.00;50.43;95335.22;5031016;28;20219;-86
2021/03/25 08:50:58;;;;;;;30.80;15.52;;;11.10;69.60;;;11.11;50.45;95326.06;5031155;28;20663;-84
2021/03/25 08:53:41;;;;;;;32.42;16.05;;;11.30;69.60;;;11.21;49.92;95333.66;5004904;28;20257;-83
2021/03/25 08:56:29;;;;;;;31.98;15.50;;;11.30;69.30;;;11.31;49.54;95336.78;5014027;28;20227;-84
2021/03/25 08:59:02;;;;;;;28.73;15.88;;;11.40;68.70;;;11.41;49.11;95339.09;5030556;28;20232;-87
2021/03/25 09:01:50;;;;;;;30.85;16.20;;;11.50;68.50;;;11.49;49.34;95336.38;5015610;28;20681;-86
2021/03/25 09:04:19;;;;;;;30.70;16.50;;;11.60;68.20;;;11.58;48.48;95334.41;5016288;28;20270;-84
2021/03/25 09:06:50;;;;;;;27.27;14.25;;;11.70;68.20;;;11.64;49.46;95333.66;5015994;28;20258;-83
2021/03/25 09:09:30;;;;;;;28.55;14.75;;;11.80;68.80;;;11.75;48.58;95335.00;5028473;28;20720;-84
2021/03/25 09:11:57;;;;;;;28.10;14.85;;;11.90;68.50;;;11.82;48.66;95329.81;5016985;28;20682;-84
2021/03/25 09:14:26;;;;;;;23.10;12.50;;;12.00;68.40;;;11.91;49.39;95327.84;4999355;28;20223;-87
2021/03/25 09:17:16;;;;;;;29.63;15.85;;;12.00;68.70;;;12.02;48.51;95327.34;5018441;28;20251;-84
2021/03/25 09:19:56;;;;;;;30.77;16.38;;;12.10;68.00;;;12.03;48.55;95318.47;5014931;28;20662;-84
2021/03/25 09:22:42;;;;;;;26.83;15.15;;;12.20;67.70;;;12.17;49.19;95327.28;5014067;28;20718;-84
2021/03/25 09:25:27;;;;;;;27.23;15.40;;;12.30;68.30;;;12.21;46.68;95323.25;5030390;28;20204;-84
2021/03/25 09:28:19;;;;;;;29.13;16.15;;;12.40;67.70;;;12.27;47.71;95327.75;5037828;28;20223;-84
2021/03/25 09:31:08;;;;;;;31.08;17.33;;;12.40;67.20;;;12.36;46.90;95327.59;5030377;28;20219;-84
2021/03/25 09:33:51;;;;;;;28.90;15.32;;;12.50;67.20;;;12.47;47.55;95332.31;5041099;28;20253;-84
2021/03/25 09:36:18;;;;;;;26.17;15.45;;;12.50;67.20;;;12.55;47.03;95333.97;5043300;28;20715;-86
2021/03/25 09:38:51;;;;;;;30.58;17.10;;;12.60;67.30;;;12.52;44.66;95321.22;5050307;28;20643;-86
2021/03/25 09:41:41;;;;;;;26.67;16.02;;;12.70;65.90;;;12.66;46.95;95328.19;5043884;28;20227;-87
2021/03/25 09:44:11;;;;;;;25.15;15.10;;;12.70;66.80;;;12.76;46.10;95323.38;5018570;28;20316;-86
2021/03/25 09:46:45;;;;;;;28.35;16.67;;;12.80;66.50;;;12.85;46.46;95331.13;5044458;28;20234;-85
2021/03/25 09:49:19;;;;;;;27.08;16.27;;;12.90;66.50;;;12.93;45.67;95329.13;5047023;28;20207;-86
2021/03/25 09:52:30;;;;;;;29.90;17.50;;;13.00;66.20;;;12.97;45.59;95324.28;5047979;28;20227;-87
2021/03/25 09:54:57;;;;;;;24.23;14.52;;;13.00;65.90;;;13.06;46.30;95311.75;5038172;28;20195;-87
2021/03/25 09:57:30;;;;;;;31.70;17.05;;;13.10;66.50;;;13.13;45.35;95316.06;5038992;28;20207;-87
2021/03/25 10:00:14;;;;;;;28.17;16.30;;;13.20;65.90;;;13.17;45.09;95305.09;5052717;28;20196;-85
2021/03/25 10:02:51;;;;;;;25.63;15.18;;;13.30;65.50;;;13.22;45.50;95307.94;5027613;28;20236;-87
2021/03/25 10:05:31;;;;;;;25.95;15.75;;;13.30;65.90;;;13.28;45.07;95320.31;5043864;28;20207;-86
2021/03/25 10:08:20;;;;;;;25.52;15.20;;;13.40;65.70;;;13.33;45.09;95309.19;5037156;28;20313;-85
2021/03/25 10:11:00;;;;;;;27.40;16.10;;;13.40;65.30;;;13.35;43.73;95313.25;5033737;28;20258;-84
2021/03/25 10:13:37;;;;;;;23.42;14.43;;;13.50;64.90;;;13.42;45.33;95300.94;5018456;28;20184;-82
2021/03/25 10:16:35;;;;;;;24.10;14.07;;;13.50;65.60;;;13.52;46.07;95300.53;5049097;28;20208;-85
2021/03/25 10:19:11;;;;;;;25.08;15.98;;;13.60;66.00;;;13.56;43.80;95309.69;5034961;28;20215;-87
2021/03/25 10:21:59;;;;;;;24.00;14.45;;;13.70;64.70;;;13.62;44.45;95310.69;5019013;28;20215;-87
2021/03/25 10:24:40;;;;;;;24.30;15.25;;;13.70;65.30;;;13.60;44.37;95296.94;5034857;28;20192;-87
2021/03/25 10:27:41;;;;;;;26.00;14.93;;;13.90;65.20;;;13.64;44.87;95295.50;5034776;28;20236;-84
2021/03/25 10:30:32;;;;;;;26.30;14.50;;;13.80;65.00;;;13.69;43.83;95294.91;5020278;28;20219;-86
2021/03/25 10:33:05;;;;;;;25.63;14.57;;;13.90;64.50;;;13.76;43.50;95301.78;5019715;28;20323;-86
2021/03/25 10:35:42;;;;;;;24.52;15.40;;;13.90;64.20;;;13.75;43.15;95300.16;5021870;28;20393;-85
2021/03/25 10:38:13;;;;;;;24.40;15.40;;;14.00;64.90;;;13.79;42.75;95297.94;5049004;28;20677;-86
2021/03/25 10:40:45;;;;;;;23.40;14.55;;;14.00;63.60;;;13.82;43.27;95289.63;5042179;28;20462;-86
2021/03/25 10:43:26;;;;;;;22.20;14.30;;;14.00;63.90;;;13.85;43.62;95293.69;5025573;28;20274;-87
2021/03/25 10:45:57;;;;;;;19.85;12.90;;;14.00;63.70;;;13.92;43.22;95287.41;5044258;28;20253;-87
2021/03/25 10:48:35;;;;;;;22.20;14.15;;;14.00;63.60;;;13.92;41.91;95276.84;5049935;28;20264;-85
2021/03/25 10:51:21;;;;;;;19.80;13.38;;;14.10;63.20;;;13.99;42.07;95294.50;5042242;28;20578;-86
2021/03/25 10:53:53;;;;;;;19.73;12.48;;;14.10;63.30;;;14.05;42.51;95291.88;5016030;28;20204;-86
2021/03/25 10:56:38;;;;;;;19.30;13.35;;;14.20;63.60;;;14.13;43.15;95275.00;5013881;28;20745;-86
2021/03/25 10:59:10;;;;;;;20.90;13.23;;;14.20;63.60;;;14.23;43.25;95279.88;5016816;28;20188;-87
2021/03/25 11:01:56;;;;;;;19.65;12.60;;;14.30;63.60;;;14.30;42.99;95275.38;5032959;28;20246;-84
2021/03/25 11:04:32;;;;;;;21.27;13.80;;;14.40;63.90;;;14.38;43.34;95269.91;5016699;28;20514;-84
2021/03/25 11:07:19;;;;;;;19.00;12.60;;;14.40;64.30;;;14.47;43.66;95265.19;5048115;28;20226;-84
2021/03/25 11:10:00;;;;;;;21.73;14.35;;;14.50;64.00;;;14.56;42.32;95268.41;5014532;28;20392;-87
2021/03/25 11:12:33;;;;;;;20.50;13.13;;;14.70;63.50;;;14.63;42.62;95253.38;5034403;28;20243;-85